Time;durP1;ratioP1;P1;durP2;ratioP2;P2;SDS_P1;SDS_P2;PMS_P1;PMS_P2;Temp;Humidity;BMP_temperature;BMP_pressure;BME280_temperature;BME280_humidity;BME280_pressure;Samples;Min_cycle;Max_cycle;Signal;HPM_P1;HPM_P2
2021/10/23 00:02:18;;;;;;;36.67;15.73;;;;;;;;;;5031668;28;20422;-48
2021/10/23 00:04:44;;;;;;;26.90;15.07;;;;;;;;;;5031940;28;20435;-49
2021/10/23 00:07:10;;;;;;;28.33;15.13;;;;;;;;;;5031848;28;20883;-48
2021/10/23 00:09:36;;;;;;;30.93;14.97;;;;;;;;;;5032383;28;20411;-49
2021/10/23 00:12:02;;;;;;;25.53;15.57;;;;;;;;;;5031550;28;20422;-48
2021/10/23 00:14:28;;;;;;;30.17;14.77;;;;;;;;;;5031722;28;20493;-49
2021/10/23 00:16:54;;;;;;;23.57;15.90;;;;;;;;;;5031735;28;20442;-49
2021/10/23 00:19:20;;;;;;;26.87;14.27;;;;;;;;;;5031659;28;20918;-49
2021/10/23 00:21:46;;;;;;;31.37;15.40;;;;;;;;;;5031485;28;20422;-48
2021/10/23 00:24:12;;;;;;;27.03;14.77;;;;;;;;;;5031656;28;20525;-48
2021/10/23 00:26:38;;;;;;;29.13;15.30;;;;;;;;;;5031601;28;20891;-48
2021/10/23 00:29:04;;;;;;;28.37;15.03;;;;;;;;;;5031671;28;20409;-48
2021/10/23 00:31:30;;;;;;;30.23;14.53;;;;;;;;;;5031571;28;20422;-48
2021/10/23 00:33:56;;;;;;;26.50;14.47;;;;;;;;;;5031340;28;20790;-49
2021/10/23 00:36:22;;;;;;;21.67;15.27;;;;;;;;;;5031506;28;20878;-48
2021/10/23 00:38:48;;;;;;;28.07;14.80;;;;;;;;;;5031584;28;20406;-48
2021/10/23 00:41:14;;;;;;;24.63;15.77;;;;;;;;;;5031492;28;20474;-49
2021/10/23 00:43:44;;;;;;;26.70;15.90;;;;;;;;;;5031333;28;20929;-49
2021/10/23 00:46:10;;;;;;;36.60;19.50;;;;;;;;;;5031537;28;20890;-48
2021/10/23 00:48:36;;;;;;;39.03;18.30;;;;;;;;;;5031419;28;20414;-49
2021/10/23 00:51:02;;;;;;;35.10;19.30;;;;;;;;;;5031297;28;20404;-50
2021/10/23 00:53:28;;;;;;;41.50;20.63;;;;;;;;;;5031105;28;20954;-49
2021/10/23 00:55:54;;;;;;;36.50;19.07;;;;;;;;;;5031682;28;20454;-50
2021/10/23 00:58:20;;;;;;;38.20;17.57;;;;;;;;;;5035190;28;20761;-49
2021/10/23 01:00:46;;;;;;;29.30;18.80;;;;;;;;;;5034847;28;20412;-50
2021/10/23 01:03:13;;;;;;;44.30;22.07;;;;;;;;;;5034348;28;20454;-48
2021/10/23 01:05:39;;;;;;;38.60;20.40;;;;;;;;;;5034421;28;20411;-49
2021/10/23 01:08:05;;;;;;;39.00;21.60;;;;;;;;;;5033895;28;20423;-49
2021/10/23 01:10:31;;;;;;;35.63;22.13;;;;;;;;;;5034851;28;20899;-50
2021/10/23 01:12:58;;;;;;;38.70;21.27;;;;;;;;;;5034678;28;20455;-49
2021/10/23 01:15:25;;;;;;;42.60;20.63;;;;;;;;;;5034811;28;20450;-48
2021/10/23 01:17:52;;;;;;;50.73;23.10;;;;;;;;;;5034829;28;20404;-48
2021/10/23 01:20:19;;;;;;;42.20;23.50;;;;;;;;;;5034786;28;20412;-51
2021/10/23 01:22:45;;;;;;;45.50;22.70;;;;;;;;;;5034462;28;20451;-48
2021/10/23 01:25:11;;;;;;;42.03;22.50;;;;;;;;;;5034759;28;20399;-48
2021/10/23 01:27:38;;;;;;;40.90;22.53;;;;;;;;;;5034679;28;20474;-48
2021/10/23 01:30:05;;;;;;;44.83;24.40;;;;;;;;;;5034598;28;20400;-50
2021/10/23 01:32:31;;;;;;;42.23;23.43;;;;;;;;;;5034552;28;20438;-49
2021/10/23 01:34:57;;;;;;;45.77;24.40;;;;;;;;;;5034493;28;20856;-48
2021/10/23 01:37:33;;;;;;;45.33;21.60;;;;;;;;;;5034378;28;20400;-49
2021/10/23 01:39:59;;;;;;;46.83;22.30;;;;;;;;;;5034532;28;20403;-49
2021/10/23 01:42:25;;;;;;;49.73;23.60;;;;;;;;;;5034192;28;20455;-48
2021/10/23 01:44:51;;;;;;;48.13;25.03;;;;;;;;;;5034477;28;20407;-49
2021/10/23 01:47:17;;;;;;;49.43;23.80;;;;;;;;;;5034395;28;20415;-48
2021/10/23 01:49:44;;;;;;;49.33;24.27;;;;;;;;;;5034690;28;20411;-48
2021/10/23 01:52:09;;;;;;;51.80;23.07;;;;;;;;;;5033996;28;20427;-48
2021/10/23 01:54:35;;;;;;;42.27;22.63;;;;;;;;;;5034227;28;20463;-48
2021/10/23 01:57:01;;;;;;;44.60;22.27;;;;;;;;;;5034153;28;20414;-48
2021/10/23 01:59:27;;;;;;;57.60;27.60;;;;;;;;;;5034155;28;20894;-48
2021/10/23 02:01:53;;;;;;;53.93;23.97;;;;;;;;;;5033842;28;20427;-48
2021/10/23 02:04:19;;;;;;;55.87;26.43;;;;;;;;;;5033895;28;20407;-49
2021/10/23 02:06:45;;;;;;;51.83;26.67;;;;;;;;;;5033795;28;20434;-48
2021/10/23 02:09:11;;;;;;;48.37;24.13;;;;;;;;;;5033935;28;20417;-49
2021/10/23 02:11:37;;;;;;;59.33;26.37;;;;;;;;;;5033830;28;20443;-49
2021/10/23 02:14:03;;;;;;;53.60;27.07;;;;;;;;;;5033608;28;20446;-49
2021/10/23 02:16:29;;;;;;;45.10;24.40;;;;;;;;;;5033801;28;20409;-51
2021/10/23 02:18:55;;;;;;;49.37;23.87;;;;;;;;;;5033567;28;20424;-48
2021/10/23 02:21:21;;;;;;;51.67;24.57;;;;;;;;;;5033687;28;20481;-48
2021/10/23 02:23:47;;;;;;;57.10;27.47;;;;;;;;;;5033457;28;20443;-48
2021/10/23 02:26:13;;;;;;;58.27;26.70;;;;;;;;;;5033626;28;20461;-48
2021/10/23 02:28:39;;;;;;;48.30;23.73;;;;;;;;;;5033596;28;20411;-48
2021/10/23 02:31:05;;;;;;;53.73;26.47;;;;;;;;;;5033473;28;20411;-48
2021/10/23 02:33:31;;;;;;;60.83;27.50;;;;;;;;;;5033103;28;20461;-49
2021/10/23 02:35:58;;;;;;;56.23;26.50;;;;;;;;;;5033464;28;20402;-48
2021/10/23 02:38:24;;;;;;;61.60;25.90;;;;;;;;;;5033333;28;20423;-48
2021/10/23 02:40:50;;;;;;;58.57;27.70;;;;;;;;;;5033401;28;20520;-49
2021/10/23 02:43:16;;;;;;;55.43;26.57;;;;;;;;;;5033031;28;20931;-48
2021/10/23 02:45:42;;;;;;;66.57;25.90;;;;;;;;;;5033310;28;20439;-48
2021/10/23 02:48:08;;;;;;;58.90;27.23;;;;;;;;;;5033033;28;20489;-48
2021/10/23 02:50:34;;;;;;;61.37;26.93;;;;;;;;;;5033182;28;20399;-48
2021/10/23 02:53:00;;;;;;;56.83;26.40;;;;;;;;;;5032873;28;20430;-49
2021/10/23 02:55:27;;;;;;;61.83;27.77;;;;;;;;;;5033059;28;20452;-48
2021/10/23 02:57:53;;;;;;;74.90;28.07;;;;;;;;;;5032969;28;20399;-48
2021/10/23 03:00:19;;;;;;;54.97;25.83;;;;;;;;;;5032969;28;20403;-49
2021/10/23 03:02:45;;;;;;;61.27;26.70;;;;;;;;;;5032515;28;20423;-48
2021/10/23 03:05:11;;;;;;;60.47;24.70;;;;;;;;;;5032915;28;20907;-48
2021/10/23 03:07:38;;;;;;;49.60;26.70;;;;;;;;;;5032788;28;20468;-48
2021/10/23 03:10:04;;;;;;;50.60;26.27;;;;;;;;;;5032826;28;20433;-48
2021/10/23 03:12:30;;;;;;;62.70;28.23;;;;;;;;;;5032490;28;20483;-49
2021/10/23 03:14:56;;;;;;;62.10;26.60;;;;;;;;;;5033153;28;20458;-48
2021/10/23 03:17:22;;;;;;;58.33;27.13;;;;;;;;;;5032472;28;20398;-49
2021/10/23 03:19:48;;;;;;;57.93;26.17;;;;;;;;;;5031967;28;20426;-49
2021/10/23 03:22:14;;;;;;;55.93;27.00;;;;;;;;;;5032253;28;20937;-49
2021/10/23 03:24:39;;;;;;;55.57;25.07;;;;;;;;;;5032613;28;20407;-49
2021/10/23 03:27:05;;;;;;;54.37;25.00;;;;;;;;;;5032494;28;20494;-48
2021/10/23 03:29:31;;;;;;;51.60;25.00;;;;;;;;;;5032482;28;20412;-48
2021/10/23 03:31:57;;;;;;;71.90;28.87;;;;;;;;;;5032039;28;20423;-48
2021/10/23 03:34:23;;;;;;;51.63;26.17;;;;;;;;;;5032226;28;21017;-48
2021/10/23 03:36:49;;;;;;;52.20;26.10;;;;;;;;;;5032314;28;20487;-48
2021/10/23 03:39:15;;;;;;;51.07;27.03;;;;;;;;;;5032304;28;20395;-48
2021/10/23 03:41:41;;;;;;;50.93;24.03;;;;;;;;;;5032389;28;20421;-49
2021/10/23 03:44:08;;;;;;;48.20;25.43;;;;;;;;;;5032176;28;20400;-49
2021/10/23 03:46:34;;;;;;;58.37;27.10;;;;;;;;;;5032105;28;20399;-48
2021/10/23 03:49:00;;;;;;;57.87;27.70;;;;;;;;;;5032196;28;20494;-48
2021/10/23 03:51:27;;;;;;;56.47;24.50;;;;;;;;;;5032060;28;20465;-48
2021/10/23 03:53:53;;;;;;;52.63;24.30;;;;;;;;;;5031852;28;20947;-48
2021/10/23 03:56:19;;;;;;;65.80;26.20;;;;;;;;;;5031982;28;20487;-49
2021/10/23 03:58:45;;;;;;;61.90;24.70;;;;;;;;;;5032001;28;20794;-48
2021/10/23 04:01:12;;;;;;;48.60;24.90;;;;;;;;;;5031858;28;20408;-49
2021/10/23 04:03:38;;;;;;;54.57;25.50;;;;;;;;;;5031695;28;20502;-49
2021/10/23 04:06:05;;;;;;;57.47;27.17;;;;;;;;;;5031849;28;20520;-48
2021/10/23 04:08:31;;;;;;;60.40;27.20;;;;;;;;;;5031793;28;20423;-48
2021/10/23 04:10:57;;;;;;;56.50;27.17;;;;;;;;;;5031878;28;20407;-48
2021/10/23 04:13:23;;;;;;;56.07;26.20;;;;;;;;;;5031336;28;20807;-48
2021/10/23 04:15:49;;;;;;;48.53;23.10;;;;;;;;;;5031669;28;20406;-48
2021/10/23 04:18:15;;;;;;;47.40;22.77;;;;;;;;;;5032106;28;20473;-49
2021/10/23 04:20:41;;;;;;;51.07;23.17;;;;;;;;;;5031883;28;20943;-49
2021/10/23 04:23:07;;;;;;;56.83;24.90;;;;;;;;;;5031479;28;20423;-49
2021/10/23 04:25:33;;;;;;;55.97;26.20;;;;;;;;;;5032005;28;20789;-50
2021/10/23 04:27:59;;;;;;;46.63;23.30;;;;;;;;;;5030887;28;20411;-49
2021/10/23 04:30:25;;;;;;;52.57;25.40;;;;;;;;;;5031008;28;20889;-48
2021/10/23 04:32:51;;;;;;;53.93;23.30;;;;;;;;;;5033949;28;20426;-49
2021/10/23 04:35:17;;;;;;;53.20;24.03;;;;;;;;;;5044662;28;20484;-50
2021/10/23 04:37:43;;;;;;;55.87;25.87;;;;;;;;;;5055293;28;20402;-49
2021/10/23 04:40:10;;;;;;;50.93;25.07;;;;;;;;;;5056819;28;20409;-47
2021/10/23 04:42:36;;;;;;;48.83;23.90;;;;;;;;;;5055680;28;20429;-47
2021/10/23 04:45:03;;;;;;;53.50;24.50;;;;;;;;;;5057744;28;20460;-49
2021/10/23 04:47:29;;;;;;;41.30;21.43;;;;;;;;;;5054914;28;20424;-49
2021/10/23 04:49:55;;;;;;;59.53;26.67;;;;;;;;;;5055870;28;20942;-48
2021/10/23 04:52:21;;;;;;;47.23;23.40;;;;;;;;;;5055493;28;20432;-49
2021/10/23 04:54:47;;;;;;;54.60;24.47;;;;;;;;;;5055437;28;20502;-49
2021/10/23 04:57:13;;;;;;;68.43;27.70;;;;;;;;;;5056643;28;20908;-50
2021/10/23 04:59:38;;;;;;;45.97;21.80;;;;;;;;;;5056008;28;20403;-48
2021/10/23 05:02:04;;;;;;;58.87;23.87;;;;;;;;;;5054817;28;20425;-48
2021/10/23 05:04:30;;;;;;;66.00;26.70;;;;;;;;;;5055208;28;20402;-48
2021/10/23 05:06:56;;;;;;;57.93;24.23;;;;;;;;;;5055146;28;20890;-47
2021/10/23 05:09:22;;;;;;;63.40;25.27;;;;;;;;;;5055003;28;20427;-48
2021/10/23 05:11:48;;;;;;;58.00;27.43;;;;;;;;;;5054562;28;20472;-49
2021/10/23 05:14:14;;;;;;;57.93;25.10;;;;;;;;;;5054781;28;20512;-50
2021/10/23 05:16:41;;;;;;;58.13;27.20;;;;;;;;;;5054810;28;20501;-50
2021/10/23 05:19:07;;;;;;;51.70;24.20;;;;;;;;;;5054743;28;20798;-50
2021/10/23 05:21:34;;;;;;;61.40;25.67;;;;;;;;;;5054737;28;20419;-48
2021/10/23 05:24:00;;;;;;;62.37;25.47;;;;;;;;;;5054602;28;20413;-48
2021/10/23 05:26:26;;;;;;;60.63;24.30;;;;;;;;;;5054564;28;20402;-48
2021/10/23 05:28:52;;;;;;;53.43;26.80;;;;;;;;;;5054660;28;20405;-48
2021/10/23 05:31:18;;;;;;;55.60;26.00;;;;;;;;;;5054503;28;20488;-48
2021/10/23 05:33:44;;;;;;;58.42;26.40;;;;;;;;;;5054298;28;20456;-49
2021/10/23 05:36:10;;;;;;;50.13;23.30;;;;;;;;;;5054557;28;20259;-50
2021/10/23 05:38:36;;;;;;;57.13;25.23;;;;;;;;;;5054405;28;20401;-48
2021/10/23 05:41:02;;;;;;;48.03;23.50;;;;;;;;;;5054362;28;20865;-48
2021/10/23 05:43:28;;;;;;;49.60;22.90;;;;;;;;;;5053585;28;20402;-48
2021/10/23 05:45:54;;;;;;;50.60;23.45;;;;;;;;;;5054338;28;20259;-48
2021/10/23 05:48:20;;;;;;;55.33;23.00;;;;;;;;;;5054291;28;20205;-48
2021/10/23 05:50:46;;;;;;;47.58;21.98;;;;;;;;;;5054251;28;20394;-48
2021/10/23 05:53:12;;;;;;;48.07;23.53;;;;;;;;;;5053867;28;20188;-48
2021/10/23 05:55:38;;;;;;;52.00;23.87;;;;;;;;;;5054052;28;20489;-48
2021/10/23 05:58:05;;;;;;;47.43;23.23;;;;;;;;;;5052780;28;20433;-49
2021/10/23 06:00:34;;;;;;;50.57;22.13;;;;;;;;;;5053998;28;20402;-48
2021/10/23 06:03:01;;;;;;;48.53;22.30;;;;;;;;;;5053657;28;20453;-47
2021/10/23 06:05:27;;;;;;;52.23;23.40;;;;;;;;;;5052753;28;20261;-47
2021/10/23 06:07:54;;;;;;;53.50;22.90;;;;;;;;;;5053918;28;20869;-49
2021/10/23 06:10:21;;;;;;;53.00;22.52;;;;;;;;;;5053912;28;20436;-51
2021/10/23 06:12:47;;;;;;;53.08;22.98;;;;;;;;;;5053541;28;20187;-47
2021/10/23 06:15:13;;;;;;;54.43;24.13;;;;;;;;;;5053725;28;20209;-47
2021/10/23 06:17:40;;;;;;;46.70;22.90;;;;;;;;;;5053700;28;20398;-47
2021/10/23 06:20:07;;;;;;;50.30;23.42;;;;;;;;;;5053568;28;20425;-50
2021/10/23 06:22:33;;;;;;;52.80;24.00;;;;;;;;;;5053256;28;20193;-48
2021/10/23 06:24:59;;;;;;;57.67;25.02;;;;;;;;;;5053603;28;20398;-48
2021/10/23 06:27:25;;;;;;;56.60;23.73;;;;;;;;;;5053460;28;20666;-50
2021/10/23 06:29:54;;;;;;;50.17;23.23;;;;;;;;;;5053532;28;20434;-50
2021/10/23 06:32:20;;;;;;;64.80;25.02;;;;;;;;;;5053249;28;20192;-47
2021/10/23 06:34:46;;;;;;;60.43;25.70;;;;;;;;;;5053311;28;20674;-47
2021/10/23 06:37:12;;;;;;;49.70;23.87;;;;;;;;;;5053223;28;20435;-47
2021/10/23 06:39:38;;;;;;;59.43;24.93;;;;;;;;;;5053343;28;20399;-48
2021/10/23 06:42:05;;;;;;;50.50;24.13;;;;;;;;;;5052946;28;20790;-48
2021/10/23 06:44:31;;;;;;;59.97;23.43;;;;;;;;;;5053282;28;20944;-48
2021/10/23 06:46:57;;;;;;;54.97;24.53;;;;;;;;;;5053242;28;20409;-47
2021/10/23 06:49:23;;;;;;;43.77;22.67;;;;;;;;;;5053164;28;20914;-48
2021/10/23 06:51:49;;;;;;;50.43;23.07;;;;;;;;;;5052711;28;20429;-48
2021/10/23 06:54:14;;;;;;;55.43;21.63;;;;;;;;;;5052017;28;20454;-51
2021/10/23 06:56:40;;;;;;;56.57;22.40;;;;;;;;;;5052972;28;20950;-47
2021/10/23 06:59:06;;;;;;;49.73;20.97;;;;;;;;;;5052908;28;20821;-48
2021/10/23 07:01:32;;;;;;;52.57;22.47;;;;;;;;;;5052765;28;20413;-48
2021/10/23 07:03:58;;;;;;;53.60;23.50;;;;;;;;;;5052642;28;20399;-47
2021/10/23 07:06:24;;;;;;;57.23;23.80;;;;;;;;;;5052537;28;20409;-48
2021/10/23 07:08:50;;;;;;;54.40;22.90;;;;;;;;;;5052832;28;20406;-48
2021/10/23 07:11:16;;;;;;;46.73;20.73;;;;;;;;;;5052679;28;20407;-47
2021/10/23 07:13:42;;;;;;;44.50;23.17;;;;;;;;;;5052367;28;20941;-48
2021/10/23 07:16:08;;;;;;;44.60;21.80;;;;;;;;;;5052714;28;20398;-48
2021/10/23 07:18:34;;;;;;;47.23;22.03;;;;;;;;;;5052450;28;20425;-49
2021/10/23 07:21:00;;;;;;;47.57;23.07;;;;;;;;;;5052570;28;20968;-50
2021/10/23 07:23:26;;;;;;;43.73;21.13;;;;;;;;;;5052357;28;20409;-48
2021/10/23 07:25:52;;;;;;;44.53;22.27;;;;;;;;;;5052502;28;20497;-48
2021/10/23 07:28:18;;;;;;;45.63;20.43;;;;;;;;;;5052382;28;20406;-48
2021/10/23 07:30:44;;;;;;;44.33;21.87;;;;;;;;;;5052437;28;20510;-47
2021/10/23 07:33:10;;;;;;;46.93;21.87;;;;;;;;;;5052084;28;20432;-48
2021/10/23 07:35:36;;;;;;;51.53;20.57;;;;;;;;;;5052243;28;20501;-48
2021/10/23 07:38:02;;;;;;;45.33;21.03;;;;;;;;;;5052275;28;20395;-48
2021/10/23 07:40:28;;;;;;;43.43;21.60;;;;;;;;;;5052339;28;20419;-48
2021/10/23 07:42:54;;;;;;;47.00;23.90;;;;;;;;;;5051906;28;20417;-48
2021/10/23 07:45:20;;;;;;;44.10;23.70;;;;;;;;;;5052162;28;20409;-48
2021/10/23 07:47:46;;;;;;;44.47;21.27;;;;;;;;;;5052103;28;20408;-49
2021/10/23 07:50:12;;;;;;;44.73;22.53;;;;;;;;;;5052033;28;20459;-50
2021/10/23 07:52:39;;;;;;;46.47;21.60;;;;;;;;;;5051763;28;20429;-48
2021/10/23 07:55:06;;;;;;;45.63;22.40;;;;;;;;;;5051940;28;20885;-50
2021/10/23 07:57:32;;;;;;;44.33;23.03;;;;;;;;;;5051936;28;20923;-49
2021/10/23 07:59:58;;;;;;;40.40;20.43;;;;;;;;;;5051822;28;20875;-49
2021/10/23 08:02:24;;;;;;;41.47;20.67;;;;;;;;;;5051504;28;20424;-49
2021/10/23 08:04:50;;;;;;;51.00;22.23;;;;;;;;;;5051536;28;20459;-48
2021/10/23 08:07:16;;;;;;;43.30;20.50;;;;;;;;;;5051819;28;20769;-49
2021/10/23 08:09:42;;;;;;;39.73;21.73;;;;;;;;;;5051959;28;20408;-49
2021/10/23 08:12:09;;;;;;;45.50;19.93;;;;;;;;;;5051427;28;20431;-49
2021/10/23 08:14:35;;;;;;;35.37;20.57;;;;;;;;;;5051697;28;20483;-49
2021/10/23 08:17:01;;;;;;;36.13;19.23;;;;;;;;;;5051649;28;20531;-49
2021/10/23 08:19:27;;;;;;;37.23;19.00;;;;;;;;;;5051493;28;20417;-49
2021/10/23 08:21:53;;;;;;;39.87;20.10;;;;;;;;;;5051405;28;20424;-49
2021/10/23 08:24:19;;;;;;;36.40;19.63;;;;;;;;;;5051682;28;20443;-49
2021/10/23 08:26:45;;;;;;;35.43;18.67;;;;;;;;;;5051469;28;20417;-49
2021/10/23 08:29:15;;;;;;;26.00;16.20;;;;;;;;;;5051622;28;20453;-49
2021/10/23 08:31:42;;;;;;;29.50;17.27;;;;;;;;;;5051242;28;20456;-51
2021/10/23 08:34:09;;;;;;;30.10;18.53;;;;;;;;;;5051353;28;20516;-49
2021/10/23 08:36:35;;;;;;;32.43;18.40;;;;;;;;;;5051465;28;20471;-49
2021/10/23 08:39:01;;;;;;;32.57;17.47;;;;;;;;;;5051525;28;20393;-49
2021/10/23 08:41:27;;;;;;;31.87;18.33;;;;;;;;;;5051335;28;20511;-49
2021/10/23 08:43:53;;;;;;;35.53;18.27;;;;;;;;;;5051293;28;20405;-51
2021/10/23 08:46:22;;;;;;;27.43;17.27;;;;;;;;;;5051383;28;20406;-49
2021/10/23 08:48:52;;;;;;;25.70;16.60;;;;;;;;;;5051384;28;20833;-49
2021/10/23 08:51:19;;;;;;;27.10;16.57;;;;;;;;;;5051540;28;20808;-49
2021/10/23 08:53:45;;;;;;;30.77;16.40;;;;;;;;;;5051214;28;20543;-49
2021/10/23 08:56:11;;;;;;;31.10;17.10;;;;;;;;;;5051260;28;20515;-50
2021/10/23 08:58:37;;;;;;;25.70;15.00;;;;;;;;;;5051234;28;20399;-50
2021/10/23 09:01:04;;;;;;;23.07;13.87;;;;;;;;;;5051199;28;20482;-50
2021/10/23 09:03:30;;;;;;;22.30;13.50;;;;;;;;;;5051245;28;20455;-50
2021/10/23 09:05:56;;;;;;;21.30;12.97;;;;;;;;;;5051259;28;21000;-50
2021/10/23 09:08:22;;;;;;;23.43;12.43;;;;;;;;;;5051193;28;20436;-50
2021/10/23 09:10:49;;;;;;;20.53;12.70;;;;;;;;;;5050071;28;20385;-50
2021/10/23 09:13:26;;;;;;;16.03;11.53;;;;;;;;;;5050861;28;20430;-51
2021/10/23 09:15:53;;;;;;;20.60;12.00;;;;;;;;;;5051171;28;20407;-52
2021/10/23 09:18:19;;;;;;;17.57;12.00;;;;;;;;;;5053389;28;20432;-50
2021/10/23 09:20:45;;;;;;;16.00;12.53;;;;;;;;;;5054796;28;20397;-50
2021/10/23 09:23:21;;;;;;;18.57;12.03;;;;;;;;;;5054282;28;20471;-50
2021/10/23 09:25:49;;;;;;;15.53;10.10;;;;;;;;;;5054767;28;20429;-50
2021/10/23 09:28:16;;;;;;;14.40;10.77;;;;;;;;;;5054502;28;20439;-51
2021/10/23 09:30:43;;;;;;;15.40;9.50;;;;;;;;;;5054740;28;20404;-51
2021/10/23 09:33:11;;;;;;;14.90;9.17;;;;;;;;;;5054356;28;20417;-51
2021/10/23 09:35:41;;;;;;;13.03;9.60;;;;;;;;;;5054531;28;20463;-51
2021/10/23 09:38:11;;;;;;;17.33;9.17;;;;;;;;;;5054425;28;20402;-52
2021/10/23 09:40:38;;;;;;;15.10;8.67;;;;;;;;;;5054369;28;20397;-51
2021/10/23 09:43:25;;;;;;;12.13;7.03;;;;;;;;;;5054116;28;20932;-51
2021/10/23 09:45:57;;;;;;;13.03;9.13;;;;;;;;;;5054461;28;20500;-50
2021/10/23 09:48:36;;;;;;;12.70;8.70;;;;;;;;;;5054327;28;20476;-51
2021/10/23 09:51:11;;;;;;;14.13;8.40;;;;;;;;;;5054109;28;20436;-51
2021/10/23 09:53:38;;;;;;;13.67;7.60;;;;;;;;;;5053935;28;20776;-52
2021/10/23 09:56:08;;;;;;;15.10;7.70;;;;;;;;;;5054115;28;20772;-52
2021/10/23 09:58:34;;;;;;;12.73;7.33;;;;;;;;;;5054464;28;20469;-52
2021/10/23 10:01:01;;;;;;;11.53;8.37;;;;;;;;;;5054134;28;20889;-52
2021/10/23 10:03:28;;;;;;;15.63;8.10;;;;;;;;;;5053754;28;20463;-52
2021/10/23 10:05:55;;;;;;;11.13;8.53;;;;;;;;;;5054028;28;20401;-52
2021/10/23 10:08:22;;;;;;;12.47;8.63;;;;;;;;;;5053912;28;20766;-52
2021/10/23 10:10:49;;;;;;;9.07;7.17;;;;;;;;;;5053870;28;20405;-52
2021/10/23 10:13:17;;;;;;;11.20;5.60;;;;;;;;;;5053585;28;20420;-52
2021/10/23 10:15:46;;;;;;;10.50;5.93;;;;;;;;;;5053809;28;20450;-52
2021/10/23 10:18:14;;;;;;;9.20;4.40;;;;;;;;;;5054039;28;20433;-50
2021/10/23 10:20:42;;;;;;;10.77;5.93;;;;;;;;;;5054018;28;20904;-50
2021/10/23 10:23:10;;;;;;;9.67;5.57;;;;;;;;;;5053330;28;20780;-51
2021/10/23 10:25:37;;;;;;;10.97;5.73;;;;;;;;;;5053628;28;20828;-51
2021/10/23 10:28:13;;;;;;;10.40;5.17;;;;;;;;;;5053611;28;20409;-51
2021/10/23 10:30:40;;;;;;;8.83;5.70;;;;;;;;;;5053410;28;20411;-51
2021/10/23 10:33:16;;;;;;;9.10;6.10;;;;;;;;;;5053217;28;20421;-50
2021/10/23 10:35:59;;;;;;;11.87;5.50;;;;;;;;;;5053366;28;20449;-50
2021/10/23 10:44:10;;;;;;;11.10;5.57;;;;;;;;;;5052015;28;20412;-52
2021/10/23 10:46:58;;;;;;;8.20;5.40;;;;;;;;;;5053184;28;20408;-50
2021/10/23 10:49:41;;;;;;;10.90;5.20;;;;;;;;;;5053098;28;20939;-50
2021/10/23 10:52:25;;;;;;;9.67;5.20;;;;;;;;;;5052787;28;20845;-50
2021/10/23 10:55:11;;;;;;;13.47;5.97;;;;;;;;;;5053074;28;20882;-50
2021/10/23 10:57:56;;;;;;;10.53;4.60;;;;;;;;;;5052902;28;20375;-50
2021/10/23 11:00:22;;;;;;;7.40;4.33;;;;;;;;;;5053042;28;20441;-50
2021/10/23 11:02:48;;;;;;;10.60;4.60;;;;;;;;;;5052697;28;20404;-50
2021/10/23 11:05:18;;;;;;;10.03;5.27;;;;;;;;;;5052941;28;20419;-51
2021/10/23 11:08:03;;;;;;;9.03;4.70;;;;;;;;;;5052671;28;20503;-50
2021/10/23 11:10:48;;;;;;;10.07;5.77;;;;;;;;;;5052212;28;20770;-50
2021/10/23 11:13:24;;;;;;;12.20;5.67;;;;;;;;;;5052251;28;20397;-51
2021/10/23 11:15:50;;;;;;;9.13;4.23;;;;;;;;;;5052708;28;20422;-51
2021/10/23 11:18:20;;;;;;;12.03;4.57;;;;;;;;;;5051944;28;20926;-51
2021/10/23 11:20:46;;;;;;;13.07;4.90;;;;;;;;;;5052492;28;20489;-51
2021/10/23 11:23:22;;;;;;;8.40;4.43;;;;;;;;;;5051659;28;20455;-51
2021/10/23 11:25:48;;;;;;;8.07;4.10;;;;;;;;;;5052503;28;20399;-52
2021/10/23 11:28:16;;;;;;;9.20;4.67;;;;;;;;;;5050922;28;20823;-51
2021/10/23 11:30:43;;;;;;;8.07;4.50;;;;;;;;;;5052256;28;20488;-51
2021/10/23 11:33:13;;;;;;;5.97;3.77;;;;;;;;;;5034398;28;20990;-51
2021/10/23 11:35:38;;;;;;;11.33;4.83;;;;;;;;;;5051798;28;20983;-52
2021/10/23 11:38:05;;;;;;;8.63;3.90;;;;;;;;;;5052467;28;20412;-53
2021/10/23 11:40:32;;;;;;;7.70;4.07;;;;;;;;;;5037734;28;20406;-51
2021/10/23 11:42:58;;;;;;;9.10;4.53;;;;;;;;;;5030230;28;20468;-52
2021/10/23 11:45:24;;;;;;;7.50;3.97;;;;;;;;;;5032219;28;20922;-51
2021/10/23 11:47:50;;;;;;;8.90;3.70;;;;;;;;;;5032113;28;20762;-52
2021/10/23 11:50:30;;;;;;;4.70;2.40;;;;;;;;;;5032148;28;20399;-51
2021/10/23 11:53:03;;;;;;;5.73;2.57;;;;;;;;;;5031501;28;20426;-52
2021/10/23 11:55:34;;;;;;;5.47;2.70;;;;;;;;;;5032018;28;20454;-51
2021/10/23 11:58:01;;;;;;;4.50;2.60;;;;;;;;;;5031908;28;20398;-52
2021/10/23 12:00:28;;;;;;;5.50;2.13;;;;;;;;;;5032275;28;20485;-52
2021/10/23 12:02:57;;;;;;;2.90;2.10;;;;;;;;;;5032181;28;20422;-52
2021/10/23 12:05:40;;;;;;;7.40;2.40;;;;;;;;;;5031351;28;20412;-51
2021/10/23 12:08:12;;;;;;;3.97;2.27;;;;;;;;;;5030658;28;20434;-51
2021/10/23 12:10:57;;;;;;;3.50;1.90;;;;;;;;;;5031278;28;20409;-51
2021/10/23 12:13:25;;;;;;;3.10;1.77;;;;;;;;;;5031030;28;20428;-52
2021/10/23 12:16:07;;;;;;;4.00;2.10;;;;;;;;;;5031200;28;21091;-52
2021/10/23 12:18:40;;;;;;;2.73;1.70;;;;;;;;;;5031205;28;20428;-51
2021/10/23 12:21:14;;;;;;;7.40;1.70;;;;;;;;;;5031381;28;20411;-51
2021/10/23 12:23:40;;;;;;;5.33;1.57;;;;;;;;;;5031744;28;20406;-52
2021/10/23 12:26:07;;;;;;;4.07;1.50;;;;;;;;;;5031756;28;20401;-51
2021/10/23 12:28:53;;;;;;;2.83;2.00;;;;;;;;;;5031613;28;20406;-51
2021/10/23 12:31:19;;;;;;;4.27;1.70;;;;;;;;;;5031435;28;20398;-52
2021/10/23 12:34:03;;;;;;;6.10;1.90;;;;;;;;;;5031457;28;20398;-53
2021/10/23 12:36:29;;;;;;;4.40;2.10;;;;;;;;;;5031226;28;20474;-52
2021/10/23 12:38:57;;;;;;;5.80;1.77;;;;;;;;;;5031583;28;20894;-52
2021/10/23 12:41:23;;;;;;;2.50;1.77;;;;;;;;;;5031603;28;20417;-53
2021/10/23 12:43:49;;;;;;;4.57;1.80;;;;;;;;;;5031270;28;20395;-52
2021/10/23 12:46:16;;;;;;;10.77;2.27;;;;;;;;;;5031447;28;20476;-52
2021/10/23 12:48:42;;;;;;;3.17;2.43;;;;;;;;;;5031563;28;20401;-52
2021/10/23 12:51:08;;;;;;;4.07;2.00;;;;;;;;;;5031490;28;20398;-52
2021/10/23 12:53:34;;;;;;;7.50;2.10;;;;;;;;;;5034242;28;20404;-52
2021/10/23 12:56:00;;;;;;;4.40;2.23;;;;;;;;;;5035203;28;20402;-53
2021/10/23 12:58:26;;;;;;;3.80;2.10;;;;;;;;;;5035332;28;20398;-52
2021/10/23 13:00:52;;;;;;;2.70;1.80;;;;;;;;;;5035417;28;20770;-52
2021/10/23 13:03:18;;;;;;;6.03;3.00;;;;;;;;;;5034988;28;20422;-53
2021/10/23 13:05:45;;;;;;;4.23;1.93;;;;;;;;;;5035091;28;20414;-52
2021/10/23 13:08:11;;;;;;;2.40;2.20;;;;;;;;;;5035106;28;20411;-54
2021/10/23 13:10:37;;;;;;;2.63;1.90;;;;;;;;;;5035240;28;20407;-52
2021/10/23 13:13:03;;;;;;;3.90;1.93;;;;;;;;;;5034618;28;20430;-52
2021/10/23 13:15:29;;;;;;;2.37;1.57;;;;;;;;;;5035043;28;20482;-53
2021/10/23 13:17:55;;;;;;;1.97;1.77;;;;;;;;;;5033203;28;21095;-53
2021/10/23 13:20:21;;;;;;;2.97;1.60;;;;;;;;;;5033911;28;20410;-52
2021/10/23 13:22:47;;;;;;;2.77;1.70;;;;;;;;;;5034508;28;20856;-51
2021/10/23 13:25:14;;;;;;;1.70;1.60;;;;;;;;;;5035008;28;20692;-53
2021/10/23 13:27:41;;;;;;;3.90;1.80;;;;;;;;;;5034717;28;20410;-53
2021/10/23 13:30:08;;;;;;;1.97;1.87;;;;;;;;;;5034607;28;20431;-53
2021/10/23 13:32:34;;;;;;;3.40;2.00;;;;;;;;;;5033454;28;20429;-51
2021/10/23 13:35:00;;;;;;;3.23;1.97;;;;;;;;;;5032978;28;20465;-52
2021/10/23 13:37:26;;;;;;;2.70;2.20;;;;;;;;;;5032942;28;20405;-53
2021/10/23 13:39:52;;;;;;;1.93;1.80;;;;;;;;;;5033642;28;20433;-52
2021/10/23 13:42:18;;;;;;;5.17;1.83;;;;;;;;;;5033101;28;20945;-53
2021/10/23 13:44:44;;;;;;;2.13;1.93;;;;;;;;;;5033437;28;20412;-53
2021/10/23 13:47:10;;;;;;;3.37;2.13;;;;;;;;;;5033338;28;20483;-52
2021/10/23 13:49:36;;;;;;;6.47;2.33;;;;;;;;;;5034078;28;20497;-53
2021/10/23 13:52:03;;;;;;;3.63;2.00;;;;;;;;;;5034158;28;20423;-53
2021/10/23 13:54:29;;;;;;;4.03;2.00;;;;;;;;;;5034317;28;20459;-53
2021/10/23 13:56:55;;;;;;;2.50;1.90;;;;;;;;;;5034183;28;20748;-53
2021/10/23 13:59:21;;;;;;;4.90;2.30;;;;;;;;;;5034231;28;20409;-52
2021/10/23 14:01:47;;;;;;;2.20;2.00;;;;;;;;;;5033896;28;20431;-52
2021/10/23 14:04:13;;;;;;;2.43;1.80;;;;;;;;;;5033656;28;20421;-52
2021/10/23 14:06:39;;;;;;;2.70;2.27;;;;;;;;;;5034030;28;20405;-52
2021/10/23 14:09:06;;;;;;;2.53;2.10;;;;;;;;;;5034124;28;20823;-53
2021/10/23 14:11:32;;;;;;;6.60;1.90;;;;;;;;;;5033805;28;20793;-52
2021/10/23 14:13:59;;;;;;;3.67;2.03;;;;;;;;;;5033836;28;20966;-52
2021/10/23 14:16:26;;;;;;;3.00;2.10;;;;;;;;;;5044727;28;20483;-52
2021/10/23 14:18:53;;;;;;;3.07;2.30;;;;;;;;;;5049906;28;20426;-52
2021/10/23 14:21:19;;;;;;;3.67;2.20;;;;;;;;;;5038726;28;20403;-53
2021/10/23 14:23:46;;;;;;;4.40;2.20;;;;;;;;;;5038762;28;20429;-53
2021/10/23 14:26:14;;;;;;;6.33;2.23;;;;;;;;;;5046453;28;20424;-52
2021/10/23 14:28:40;;;;;;;4.37;1.93;;;;;;;;;;5035888;28;20504;-50
2021/10/23 14:31:11;;;;;;;3.17;1.90;;;;;;;;;;5043631;28;20452;-51